Mountain Park, North Carolina
Current Conditions -  °F | °C
As of 9:55 AM on Monday 24 Nov 2014 (Local Time) from KUKF Reporting Station
Overcast Overcast  
Wind Chill: 59°   Ceiling: 1900
Heat Index: 59°   Visibility: 10mi
Dew Point: 54°   Wind: 6mph
Humidity: 82%   Direction: 220°SW
Pressure: 29.81"   Gusts: NA
Location:  36.3943°N, 80.8906°W
Report Text: KUKF 241455Z AUTO 22005KT 10SM OVC019 15/12 A2981 RMK AO2
Loading
Personal Weather Stations






























Interactive Weather Map New forecast layout! Learn more

10-Day Weather Forecast

Advertisements
Track Severe Weather on mobile